createdAt,value
2022-08-18T00:00:20.218Z,958.56
2022-08-18T00:01:19.353Z,958.55
2022-08-18T00:03:27.582Z,958.52
2022-08-18T00:04:25.209Z,958.51
2022-08-18T00:05:19.215Z,958.53
2022-08-18T00:06:19.219Z,958.5
2022-08-18T00:07:19.207Z,958.46
2022-08-18T00:08:19.173Z,958.42
2022-08-18T00:09:19.123Z,958.38
2022-08-18T00:10:19.198Z,958.34
2022-08-18T00:11:19.272Z,958.3
2022-08-18T00:12:19.116Z,958.24
2022-08-18T00:13:19.109Z,958.19
2022-08-18T00:14:21.902Z,958.22
2022-08-18T00:15:19.140Z,958.2
2022-08-18T00:16:19.203Z,958.22
2022-08-18T00:18:19.238Z,958.2
2022-08-18T00:19:19.209Z,958.18
2022-08-18T00:20:19.215Z,958.12
2022-08-18T00:21:19.239Z,958.1
2022-08-18T00:22:19.362Z,958.07
2022-08-18T00:23:19.143Z,958.06
2022-08-18T00:24:19.244Z,958.03
2022-08-18T00:25:19.151Z,957.98
2022-08-18T00:26:19.174Z,957.99
2022-08-18T00:27:19.273Z,957.97
2022-08-18T00:28:19.213Z,957.96
2022-08-18T00:29:19.190Z,957.97
2022-08-18T00:30:19.261Z,957.93
2022-08-18T00:31:19.223Z,957.97
2022-08-18T00:32:20.137Z,957.95
2022-08-18T00:34:19.332Z,957.93
2022-08-18T00:35:19.300Z,957.97
2022-08-18T00:37:19.175Z,958
2022-08-18T00:38:23.470Z,958.01
2022-08-18T00:39:19.263Z,958.05
2022-08-18T00:40:19.395Z,958.08
2022-08-18T00:41:20.189Z,958.07
2022-08-18T00:42:27.258Z,958.06
2022-08-18T00:43:19.346Z,958.07
2022-08-18T00:44:19.204Z,958.06
2022-08-18T00:45:19.194Z,958.05
2022-08-18T00:46:19.249Z,957.98
2022-08-18T00:47:32.740Z,957.94
2022-08-18T00:48:19.280Z,957.93
2022-08-18T00:49:19.645Z,957.89
2022-08-18T00:51:19.282Z,957.9
2022-08-18T00:53:19.315Z,957.85
2022-08-18T00:55:19.254Z,957.86
2022-08-18T00:56:19.322Z,957.84
2022-08-18T00:57:19.296Z,957.85
2022-08-18T00:58:19.358Z,957.82
2022-08-18T00:59:19.334Z,957.85
2022-08-18T01:01:19.356Z,957.9
2022-08-18T01:02:19.337Z,957.88
2022-08-18T01:03:22.213Z,957.89
2022-08-18T01:05:19.240Z,957.87
2022-08-18T01:06:19.318Z,957.85
2022-08-18T01:07:19.245Z,957.83
2022-08-18T01:08:21.404Z,957.84
2022-08-18T01:09:19.320Z,957.87
2022-08-18T01:11:19.351Z,957.86
2022-08-18T01:12:29.842Z,957.87
2022-08-18T01:13:19.280Z,957.83
2022-08-18T01:14:19.264Z,957.81
2022-08-18T01:15:28.632Z,957.74
2022-08-18T01:16:19.504Z,957.76
2022-08-18T01:17:19.373Z,957.77
2022-08-18T01:18:19.286Z,957.79
2022-08-18T01:19:19.285Z,957.76
2022-08-18T01:20:19.366Z,957.75
2022-08-18T01:21:19.282Z,957.78
2022-08-18T01:22:19.311Z,957.76
2022-08-18T01:23:19.291Z,957.75
2022-08-18T01:24:21.806Z,957.76
2022-08-18T01:25:19.413Z,957.74
2022-08-18T01:26:19.371Z,957.8
2022-08-18T01:27:19.390Z,957.78
2022-08-18T01:28:19.419Z,957.77
2022-08-18T01:30:19.294Z,957.76
2022-08-18T01:31:19.412Z,957.7
2022-08-18T01:32:19.381Z,957.67
2022-08-18T01:33:19.354Z,957.68
2022-08-18T01:34:19.419Z,957.66
2022-08-18T01:35:19.394Z,957.64
2022-08-18T01:36:19.358Z,957.66
2022-08-18T01:37:19.430Z,957.63
2022-08-18T01:38:19.321Z,957.66
2022-08-18T01:41:00.366Z,957.57
2022-08-18T01:41:00.474Z,957.58
2022-08-18T01:41:28.285Z,957.59
2022-08-18T01:42:19.478Z,957.55
2022-08-18T01:44:19.406Z,957.51
2022-08-18T01:45:19.345Z,957.49
2022-08-18T01:46:19.435Z,957.46
2022-08-18T01:47:19.404Z,957.49
2022-08-18T01:48:19.483Z,957.51
2022-08-18T01:50:19.446Z,957.48
2022-08-18T01:51:19.474Z,957.53
2022-08-18T01:54:19.478Z,957.52
2022-08-18T01:55:19.444Z,957.46
2022-08-18T01:56:19.375Z,957.45
2022-08-18T01:57:19.489Z,957.44
2022-08-18T01:58:19.453Z,957.39
2022-08-18T01:59:19.372Z,957.37
2022-08-18T02:00:19.500Z,957.36
2022-08-18T02:01:19.503Z,957.31
2022-08-18T02:04:34.240Z,957.28
2022-08-18T02:05:19.413Z,957.24
2022-08-18T02:06:32.084Z,957.26
2022-08-18T02:07:19.557Z,957.22
2022-08-18T02:08:20.703Z,957.23
2022-08-18T02:09:23.620Z,957.22
2022-08-18T02:10:19.526Z,957.2
2022-08-18T02:11:19.440Z,957.16
2022-08-18T02:13:19.420Z,957.14
2022-08-18T02:14:19.461Z,957.15
2022-08-18T02:15:19.418Z,957.13
2022-08-18T02:16:19.429Z,957.16
2022-08-18T02:18:26.029Z,957.15
2022-08-18T02:19:19.423Z,957.14
2022-08-18T02:20:19.434Z,957.2
2022-08-18T02:21:19.482Z,957.17
2022-08-18T02:22:19.427Z,957.21
2022-08-18T02:23:19.447Z,957.15
2022-08-18T02:24:19.440Z,957.17
2022-08-18T02:25:19.455Z,957.14
2022-08-18T02:28:19.488Z,957.12
2022-08-18T02:29:19.469Z,957.13
2022-08-18T02:31:19.467Z,957.1
2022-08-18T02:32:19.465Z,957.06
2022-08-18T02:33:19.528Z,957.1
2022-08-18T02:36:19.539Z,957.14
2022-08-18T02:37:19.525Z,957.12
2022-08-18T02:38:19.467Z,957.14
2022-08-18T02:39:19.551Z,957.08
2022-08-18T02:40:19.626Z,957.07
2022-08-18T02:41:19.572Z,957.06
2022-08-18T02:42:19.552Z,957.04
2022-08-18T02:43:19.492Z,957
2022-08-18T02:44:19.589Z,957.03
2022-08-18T02:45:19.546Z,956.99
2022-08-18T02:46:19.490Z,957.02
2022-08-18T02:48:19.556Z,956.98
2022-08-18T02:50:19.594Z,957.01
2022-08-18T02:51:19.556Z,956.91
2022-08-18T02:52:19.630Z,956.86
2022-08-18T02:53:19.593Z,956.89
2022-08-18T02:54:19.571Z,956.85
2022-08-18T02:55:19.638Z,956.82
2022-08-18T02:56:19.600Z,956.81
2022-08-18T02:57:19.624Z,956.78
2022-08-18T02:59:19.530Z,956.74
2022-08-18T03:00:19.532Z,956.81
2022-08-18T03:01:19.682Z,956.79
2022-08-18T03:02:19.617Z,956.83
2022-08-18T03:03:19.550Z,956.8
2022-08-18T03:04:20.507Z,956.85
2022-08-18T03:05:19.616Z,956.83
2022-08-18T03:06:19.591Z,956.87
2022-08-18T03:07:19.552Z,956.86
2022-08-18T03:08:19.618Z,956.83
2022-08-18T03:09:19.602Z,956.78
2022-08-18T03:10:31.320Z,956.84
2022-08-18T03:11:19.771Z,956.9
2022-08-18T03:13:19.555Z,956.94
2022-08-18T03:14:19.619Z,956.96
2022-08-18T03:15:19.561Z,956.94
2022-08-18T03:16:19.665Z,956.97
2022-08-18T03:18:19.583Z,956.96
2022-08-18T03:19:19.674Z,956.93
2022-08-18T03:20:30.052Z,956.92
2022-08-18T03:22:27.826Z,956.95
2022-08-18T03:23:19.645Z,956.97
2022-08-18T03:24:19.916Z,956.91
2022-08-18T03:25:19.666Z,956.9
2022-08-18T03:26:19.613Z,956.93
2022-08-18T03:28:19.598Z,956.89
2022-08-18T03:29:19.656Z,956.93
2022-08-18T03:30:19.715Z,956.94
2022-08-18T03:32:19.689Z,956.93
2022-08-18T03:33:19.621Z,956.9
2022-08-18T03:34:19.970Z,956.89
2022-08-18T03:35:19.656Z,956.86
2022-08-18T03:36:19.616Z,956.85
2022-08-18T03:37:19.677Z,956.84
2022-08-18T03:38:19.637Z,956.82
2022-08-18T03:39:19.630Z,956.8
2022-08-18T03:40:19.762Z,956.83
2022-08-18T03:41:43.559Z,956.81
2022-08-18T03:42:19.723Z,956.78
2022-08-18T03:43:23.548Z,956.79
2022-08-18T03:44:19.762Z,956.77
2022-08-18T03:46:19.739Z,956.79
2022-08-18T03:47:19.652Z,956.83
2022-08-18T03:48:19.655Z,956.81
2022-08-18T03:49:19.658Z,956.83
2022-08-18T03:50:19.660Z,956.81
2022-08-18T03:51:19.736Z,956.85
2022-08-18T03:52:19.655Z,956.9
2022-08-18T03:53:19.671Z,956.88
2022-08-18T03:54:19.749Z,956.9
2022-08-18T03:55:19.709Z,956.89
2022-08-18T03:56:19.779Z,956.96
2022-08-18T03:58:19.680Z,957
2022-08-18T03:59:19.847Z,957.03
2022-08-18T04:00:19.848Z,957.04
2022-08-18T04:01:26.200Z,957.05
2022-08-18T04:02:19.978Z,957.16
2022-08-18T04:03:19.768Z,957.15
2022-08-18T04:04:19.743Z,957.18
2022-08-18T04:05:19.800Z,957.22
2022-08-18T04:06:29.822Z,957.25
2022-08-18T04:07:19.865Z,957.31
2022-08-18T04:08:19.700Z,957.29
2022-08-18T04:09:19.781Z,957.31
2022-08-18T04:10:19.894Z,957.34
2022-08-18T04:11:19.797Z,957.38
2022-08-18T04:12:19.766Z,957.36
2022-08-18T04:15:19.774Z,957.37
2022-08-18T04:16:19.756Z,957.33
2022-08-18T04:17:19.810Z,957.35
2022-08-18T04:18:19.716Z,957.33
2022-08-18T04:19:23.186Z,957.27
2022-08-18T04:20:19.819Z,957.26
2022-08-18T04:21:19.780Z,957.2
2022-08-18T04:22:19.739Z,957.19
2022-08-18T04:23:19.736Z,957.11
2022-08-18T04:25:19.748Z,957.09
2022-08-18T04:26:19.834Z,957.03
2022-08-18T04:27:19.814Z,956.95
2022-08-18T04:28:19.870Z,956.92
2022-08-18T04:29:19.826Z,956.82
2022-08-18T04:30:19.816Z,956.8
2022-08-18T04:31:19.754Z,956.71
2022-08-18T04:32:19.777Z,956.64
2022-08-18T04:33:19.805Z,956.53
2022-08-18T04:34:19.874Z,956.39
2022-08-18T04:35:19.829Z,956.27
2022-08-18T04:36:20.760Z,956.15
2022-08-18T04:37:19.868Z,955.97
2022-08-18T04:38:19.841Z,955.82
2022-08-18T04:39:19.777Z,955.63
2022-08-18T04:40:24.442Z,955.51
2022-08-18T04:41:19.871Z,955.45
2022-08-18T04:42:19.782Z,955.37
2022-08-18T04:43:19.890Z,955.32
2022-08-18T04:44:19.855Z,955.35
2022-08-18T04:45:19.781Z,955.37
2022-08-18T04:46:19.790Z,955.45
2022-08-18T04:47:19.978Z,955.56
2022-08-18T04:48:19.801Z,955.65
2022-08-18T04:49:20.011Z,955.73
2022-08-18T04:50:19.812Z,955.82
2022-08-18T04:52:22.020Z,955.89
2022-08-18T04:52:22.073Z,955.93
2022-08-18T04:53:21.065Z,956
2022-08-18T04:54:19.808Z,956.08
2022-08-18T04:55:19.817Z,956.1
2022-08-18T04:56:19.865Z,956.15
2022-08-18T04:57:20.236Z,956.11
2022-08-18T04:58:19.899Z,956.12
2022-08-18T04:59:19.899Z,956.11
2022-08-18T05:00:19.942Z,956.13
2022-08-18T05:01:19.923Z,956.15
2022-08-18T05:02:19.898Z,956.28
2022-08-18T05:03:19.952Z,956.3
2022-08-18T05:04:19.832Z,956.4
2022-08-18T05:05:19.981Z,956.47
2022-08-18T05:06:19.842Z,956.54
2022-08-18T05:07:19.915Z,956.61
2022-08-18T05:08:19.854Z,956.71
2022-08-18T05:09:22.715Z,956.72
2022-08-18T05:10:19.928Z,956.78
2022-08-18T05:11:20.017Z,956.81
2022-08-18T05:13:19.943Z,956.8
2022-08-18T05:14:19.905Z,956.78
2022-08-18T05:15:19.960Z,956.77
2022-08-18T05:16:19.939Z,956.79
2022-08-18T05:18:20.258Z,956.75
2022-08-18T05:19:19.924Z,956.71
2022-08-18T05:21:19.974Z,956.69
2022-08-18T05:22:22.406Z,956.67
2022-08-18T05:23:20.020Z,956.68
2022-08-18T05:24:20.151Z,956.71
2022-08-18T05:25:20.036Z,956.73
2022-08-18T05:26:19.885Z,956.76
2022-08-18T05:28:19.944Z,956.8
2022-08-18T05:29:20.012Z,956.85
2022-08-18T05:30:19.987Z,956.88
2022-08-18T05:32:30.627Z,956.9
2022-08-18T05:33:19.998Z,956.94
2022-08-18T05:34:19.971Z,956.95
2022-08-18T05:35:20.024Z,956.96
2022-08-18T05:36:19.990Z,956.99
2022-08-18T05:38:20.022Z,957.01
2022-08-18T05:39:19.923Z,957.03
2022-08-18T05:40:20.024Z,957.08
2022-08-18T05:41:19.938Z,957.12
2022-08-18T05:42:19.995Z,957.19
2022-08-18T05:43:19.971Z,957.21
2022-08-18T05:44:20.031Z,957.25
2022-08-18T05:45:19.947Z,957.24
2022-08-18T05:46:20.904Z,957.21
2022-08-18T05:47:20.037Z,957.14
2022-08-18T05:49:19.949Z,957.11
2022-08-18T05:50:19.955Z,957.14
2022-08-18T05:51:19.949Z,957.1
2022-08-18T05:52:19.971Z,957.08
2022-08-18T05:54:20.015Z,957.1
2022-08-18T05:56:20.051Z,957.11
2022-08-18T05:57:20.019Z,957.13
2022-08-18T05:58:20.083Z,957.16
2022-08-18T05:59:20.055Z,957.18
2022-08-18T06:01:20.095Z,957.19
2022-08-18T06:02:20.059Z,957.2
2022-08-18T06:03:20.106Z,957.24
2022-08-18T06:05:20.069Z,957.25
2022-08-18T06:07:20.108Z,957.28
2022-08-18T06:08:20.075Z,957.3
2022-08-18T06:09:20.040Z,957.31
2022-08-18T06:10:20.005Z,957.37
2022-08-18T06:11:22.647Z,957.38
2022-08-18T06:12:20.011Z,957.37
2022-08-18T06:13:20.105Z,957.42
2022-08-18T06:14:20.086Z,957.43
2022-08-18T06:15:20.136Z,957.45
2022-08-18T06:16:20.012Z,957.49
2022-08-18T06:17:20.078Z,957.5
2022-08-18T06:18:20.033Z,957.52
2022-08-18T06:19:20.025Z,957.53
2022-08-18T06:20:20.081Z,957.52
2022-08-18T06:21:20.157Z,957.5
2022-08-18T06:22:20.127Z,957.49
2022-08-18T06:23:20.082Z,957.47
2022-08-18T06:24:20.154Z,957.45
2022-08-18T06:25:20.039Z,957.43
2022-08-18T06:26:20.098Z,957.45
2022-08-18T06:27:20.047Z,957.46
2022-08-18T06:28:20.124Z,957.44
2022-08-18T06:30:20.050Z,957.46
2022-08-18T06:32:20.105Z,957.44
2022-08-18T06:33:20.178Z,957.48
2022-08-18T06:34:20.139Z,957.5
2022-08-18T06:35:20.081Z,957.54
2022-08-18T06:36:20.175Z,957.56
2022-08-18T06:37:20.280Z,957.57
2022-08-18T06:38:20.061Z,957.63
2022-08-18T06:39:20.176Z,957.65
2022-08-18T06:40:20.168Z,957.64
2022-08-18T06:41:37.720Z,957.65
2022-08-18T06:42:20.190Z,957.66
2022-08-18T06:43:20.148Z,957.69
2022-08-18T06:44:20.091Z,957.71
2022-08-18T06:45:20.191Z,957.7
2022-08-18T06:47:20.091Z,957.73
2022-08-18T06:48:20.190Z,957.65
2022-08-18T06:49:20.105Z,957.69
2022-08-18T06:50:20.226Z,957.65
2022-08-18T06:51:20.193Z,957.68
2022-08-18T06:52:20.199Z,957.64
2022-08-18T06:53:27.047Z,957.63
2022-08-18T06:54:20.369Z,957.61
2022-08-18T06:55:20.136Z,957.63
2022-08-18T06:56:25.669Z,957.64
2022-08-18T06:57:20.338Z,957.67
2022-08-18T06:58:20.169Z,957.68
2022-08-18T06:59:20.227Z,957.71
2022-08-18T07:00:20.207Z,957.77
2022-08-18T07:01:20.157Z,957.79
2022-08-18T07:02:20.246Z,957.89
2022-08-18T07:03:20.205Z,957.85
2022-08-18T07:04:20.174Z,957.84
2022-08-18T07:05:20.251Z,957.89
2022-08-18T07:06:20.214Z,957.85
2022-08-18T07:07:20.195Z,957.86
2022-08-18T07:08:20.252Z,957.79
2022-08-18T07:09:20.147Z,957.74
2022-08-18T07:10:20.195Z,957.73
2022-08-18T07:11:20.255Z,957.7
2022-08-18T07:12:20.151Z,957.72
2022-08-18T07:13:20.165Z,957.7
2022-08-18T07:14:20.265Z,957.74
2022-08-18T07:15:20.263Z,957.75
2022-08-18T07:16:30.279Z,957.76
2022-08-18T07:17:20.441Z,957.78
2022-08-18T07:19:20.189Z,957.77
2022-08-18T07:20:20.275Z,957.78
2022-08-18T07:21:20.191Z,957.85
2022-08-18T07:22:20.196Z,957.83
2022-08-18T07:23:20.177Z,957.82
2022-08-18T07:24:25.052Z,957.83
2022-08-18T07:25:20.414Z,957.85
2022-08-18T07:26:20.271Z,957.88
2022-08-18T07:28:20.193Z,957.89
2022-08-18T07:29:20.278Z,957.9
2022-08-18T07:30:20.247Z,957.91
2022-08-18T07:31:20.211Z,957.95
2022-08-18T07:32:21.212Z,957.99
2022-08-18T07:33:20.416Z,957.95
2022-08-18T07:34:20.322Z,957.93
2022-08-18T07:36:20.249Z,957.92
2022-08-18T07:37:22.002Z,957.87
2022-08-18T07:38:41.259Z,957.89
2022-08-18T07:39:20.334Z,957.88
2022-08-18T07:40:20.408Z,957.92
2022-08-18T07:41:20.261Z,957.91
2022-08-18T07:42:31.837Z,957.92
2022-08-18T07:43:20.344Z,957.94
2022-08-18T07:44:20.300Z,957.92
2022-08-18T07:45:23.820Z,957.93
2022-08-18T07:46:20.456Z,957.9
2022-08-18T07:47:20.316Z,957.94
2022-08-18T07:48:37.402Z,957.98
2022-08-18T07:49:22.127Z,958.1
2022-08-18T07:50:31.716Z,958.21
2022-08-18T07:51:20.373Z,958.24
2022-08-18T07:52:26.435Z,958.3
2022-08-18T07:53:20.443Z,958.28
2022-08-18T07:55:20.356Z,958.34
2022-08-18T07:57:20.603Z,958.28
2022-08-18T07:58:20.360Z,958.27
2022-08-18T07:59:20.430Z,958.14
2022-08-18T08:00:30.753Z,958.06
2022-08-18T08:01:20.540Z,958.01
2022-08-18T08:02:20.572Z,958.03
2022-08-18T08:03:20.398Z,958.02
2022-08-18T08:04:25.152Z,957.91
2022-08-18T08:06:20.400Z,957.84
2022-08-18T08:07:24.234Z,957.76
2022-08-18T08:08:22.748Z,957.67
2022-08-18T08:09:20.405Z,957.58
2022-08-18T08:10:20.373Z,957.55
2022-08-18T08:11:20.314Z,957.53
2022-08-18T08:12:20.411Z,957.55
2022-08-18T08:13:37.223Z,957.54
2022-08-18T08:14:24.307Z,957.52
2022-08-18T08:15:26.897Z,957.5
2022-08-18T08:16:20.508Z,957.48
2022-08-18T08:17:20.444Z,957.47
2022-08-18T08:18:20.433Z,957.44
2022-08-18T08:19:31.704Z,957.38
2022-08-18T08:21:20.543Z,957.39
2022-08-18T08:22:20.395Z,957.36
2022-08-18T08:23:20.463Z,957.4
2022-08-18T08:24:20.417Z,957.43
2022-08-18T08:25:42.515Z,957.45
2022-08-18T08:26:20.479Z,957.44
2022-08-18T08:28:20.351Z,957.46
2022-08-18T08:29:20.467Z,957.44
2022-08-18T08:30:20.500Z,957.4
2022-08-18T08:32:20.467Z,957.43
2022-08-18T08:33:20.361Z,957.42
2022-08-18T08:34:20.437Z,957.39
2022-08-18T08:36:20.468Z,957.44
2022-08-18T08:37:20.410Z,957.46
2022-08-18T08:38:39.045Z,957.51
2022-08-18T08:39:20.437Z,957.57
2022-08-18T08:40:20.530Z,957.62
2022-08-18T08:41:20.476Z,957.7
2022-08-18T08:42:29.037Z,957.77
2022-08-18T08:43:20.513Z,957.79
2022-08-18T08:44:20.486Z,957.84
2022-08-18T08:45:20.450Z,957.91
2022-08-18T08:46:20.402Z,957.88
2022-08-18T08:47:23.051Z,957.87
2022-08-18T08:48:20.542Z,957.86
2022-08-18T08:49:20.417Z,957.79
2022-08-18T08:50:20.499Z,957.73
2022-08-18T08:51:20.403Z,957.7
2022-08-18T08:52:20.423Z,957.68
2022-08-18T08:53:20.505Z,957.62
2022-08-18T08:54:20.471Z,957.63
2022-08-18T08:55:20.538Z,957.67
2022-08-18T08:56:20.495Z,957.62
2022-08-18T08:57:20.469Z,957.64
2022-08-18T08:58:20.537Z,957.63
2022-08-18T08:59:20.516Z,957.7
2022-08-18T09:00:20.494Z,957.64
2022-08-18T09:01:20.621Z,957.6
2022-08-18T09:02:44.571Z,957.49
2022-08-18T09:03:29.857Z,957.5
2022-08-18T09:05:20.600Z,957.4
2022-08-18T09:06:20.486Z,957.3
2022-08-18T09:07:20.461Z,957.33
2022-08-18T09:08:20.511Z,957.31
2022-08-18T09:09:20.449Z,957.25
2022-08-18T09:10:20.451Z,957.21
2022-08-18T09:11:20.532Z,957.2
2022-08-18T09:12:20.500Z,957.19
2022-08-18T09:13:21.726Z,957.2
2022-08-18T09:14:20.477Z,957.21
2022-08-18T09:15:20.477Z,957.16
2022-08-18T09:16:20.472Z,957.15
2022-08-18T09:17:20.528Z,957.14
2022-08-18T09:18:20.487Z,957.13
2022-08-18T09:21:20.503Z,957.2
2022-08-18T09:22:20.570Z,957.23
2022-08-18T09:23:20.485Z,957.25
2022-08-18T09:24:20.613Z,957.28
2022-08-18T09:25:20.573Z,957.26
2022-08-18T09:26:20.497Z,957.29
2022-08-18T09:27:20.496Z,957.35
2022-08-18T09:28:20.673Z,957.37
2022-08-18T09:29:20.548Z,957.41
2022-08-18T09:30:20.510Z,957.45
2022-08-18T09:31:20.582Z,957.44
2022-08-18T09:32:22.735Z,957.45
2022-08-18T09:33:20.556Z,957.35
2022-08-18T09:34:20.527Z,957.28
2022-08-18T09:35:20.556Z,957.26
2022-08-18T09:36:20.629Z,957.18
2022-08-18T09:37:21.427Z,957.04
2022-08-18T09:38:20.822Z,957.06
2022-08-18T09:39:20.673Z,957
2022-08-18T09:40:29.555Z,956.97
2022-08-18T09:41:20.731Z,957.03
2022-08-18T09:42:20.554Z,957.06
2022-08-18T09:43:20.755Z,957.01
2022-08-18T09:44:21.805Z,957
2022-08-18T09:45:20.547Z,956.98
2022-08-18T09:46:20.700Z,956.95
2022-08-18T09:47:21.716Z,957.03
2022-08-18T09:48:25.597Z,956.93
2022-08-18T09:50:37.524Z,956.97
2022-08-18T09:51:20.652Z,956.98
2022-08-18T09:52:20.664Z,956.93
2022-08-18T09:53:20.684Z,956.85
2022-08-18T09:54:21.243Z,956.92
2022-08-18T09:55:20.621Z,956.91
2022-08-18T09:56:28.484Z,956.9
2022-08-18T09:57:20.963Z,956.88
2022-08-18T10:00:24.182Z,956.88
2022-08-18T10:01:20.726Z,956.8
2022-08-18T10:02:22.633Z,956.74
2022-08-18T10:03:25.630Z,956.68
2022-08-18T10:04:21.531Z,956.62
2022-08-18T10:05:20.739Z,956.51
2022-08-18T10:07:20.646Z,956.41
2022-08-18T10:08:21.256Z,956.35
2022-08-18T10:09:26.699Z,956.3
2022-08-18T10:10:57.021Z,956.25
2022-08-18T10:11:20.864Z,956.24
2022-08-18T10:12:20.726Z,956.19
2022-08-18T10:14:20.853Z,956.21
2022-08-18T10:15:27.162Z,956.23
2022-08-18T10:16:20.639Z,956.18
2022-08-18T10:17:21.986Z,956.11
2022-08-18T10:18:20.636Z,956.15
2022-08-18T10:19:24.449Z,956.14
2022-08-18T10:20:24.032Z,956.16
2022-08-18T10:21:21.035Z,956.13
2022-08-18T10:22:33.983Z,956.15
2022-08-18T10:23:20.780Z,956.12
2022-08-18T10:24:34.932Z,956.09
2022-08-18T10:25:22.405Z,956.06
2022-08-18T10:26:20.663Z,956.15
2022-08-18T10:27:20.687Z,956.21
2022-08-18T10:28:20.768Z,956.27
2022-08-18T10:29:20.873Z,956.29
2022-08-18T10:30:20.670Z,956.25
2022-08-18T10:31:23.972Z,956.21
2022-08-18T10:32:20.745Z,956.19
2022-08-18T10:33:20.699Z,956.14
2022-08-18T10:34:20.803Z,956.18
2022-08-18T10:35:23.276Z,956.13
2022-08-18T10:36:20.677Z,956.1
2022-08-18T10:37:20.676Z,956.13
2022-08-18T10:38:20.830Z,956.12
2022-08-18T10:40:21.257Z,956.11
2022-08-18T10:42:20.703Z,956.1
2022-08-18T10:43:41.369Z,956.08
2022-08-18T10:45:22.229Z,956.03
2022-08-18T10:46:24.817Z,955.99
2022-08-18T10:47:20.882Z,955.98
2022-08-18T10:48:24.134Z,955.94
2022-08-18T10:49:20.934Z,955.9
2022-08-18T10:50:20.846Z,955.89
2022-08-18T10:52:21.096Z,955.98
2022-08-18T10:54:20.737Z,955.96
2022-08-18T10:55:20.801Z,955.97
2022-08-18T10:56:22.579Z,955.96
2022-08-18T10:59:28.321Z,955.91
2022-08-18T11:00:20.737Z,955.88
2022-08-18T11:01:20.809Z,955.89
2022-08-18T11:02:20.757Z,955.86
2022-08-18T11:04:33.761Z,955.82
2022-08-18T11:05:20.764Z,955.79
2022-08-18T11:06:21.384Z,955.77
2022-08-18T11:08:20.771Z,955.75
2022-08-18T11:09:20.853Z,955.81
2022-08-18T11:10:29.618Z,955.79
2022-08-18T11:11:32.453Z,955.86
2022-08-18T11:12:20.958Z,955.84
2022-08-18T11:13:20.945Z,955.79
2022-08-18T11:14:20.785Z,955.83
2022-08-18T11:15:21.445Z,955.79
2022-08-18T11:16:20.995Z,955.76
2022-08-18T11:17:20.888Z,955.75
2022-08-18T11:18:20.860Z,955.72
2022-08-18T11:19:20.796Z,955.7
2022-08-18T11:20:20.908Z,955.68
2022-08-18T11:21:20.973Z,955.64
2022-08-18T11:22:31.031Z,955.61
2022-08-18T11:23:21.033Z,955.59
2022-08-18T11:24:21.001Z,955.57
2022-08-18T11:25:20.834Z,955.59
2022-08-18T11:26:20.912Z,955.55
2022-08-18T11:27:20.973Z,955.58
2022-08-18T11:29:20.914Z,955.54
2022-08-18T11:30:20.893Z,955.51
2022-08-18T11:31:20.985Z,955.5
2022-08-18T11:32:20.932Z,955.46
2022-08-18T11:33:22.907Z,955.48
2022-08-18T11:34:20.928Z,955.47
2022-08-18T11:36:20.844Z,955.52
2022-08-18T11:38:23.401Z,955.53
2022-08-18T11:39:26.499Z,955.57
2022-08-18T11:40:52.244Z,955.56
2022-08-18T11:41:21.130Z,955.55
2022-08-18T11:42:21.656Z,955.6
2022-08-18T11:43:21.197Z,955.64
2022-08-18T11:44:20.853Z,955.63
2022-08-18T11:45:23.595Z,955.72
2022-08-18T11:47:23.566Z,955.68
2022-08-18T11:48:21.996Z,955.7
2022-08-18T11:49:24.236Z,955.71
2022-08-18T11:50:20.959Z,955.74
2022-08-18T11:51:22.710Z,955.69
2022-08-18T11:53:23.915Z,955.71
2022-08-18T11:54:20.885Z,955.72
2022-08-18T11:55:24.282Z,955.69
2022-08-18T11:59:21.095Z,955.7
2022-08-18T12:00:22.671Z,955.72
2022-08-18T12:04:20.911Z,955.69
2022-08-18T12:05:20.968Z,955.68
2022-08-18T12:06:20.912Z,955.69
2022-08-18T12:07:20.997Z,955.68
2022-08-18T12:08:41.828Z,955.67
2022-08-18T12:09:45.475Z,955.65
2022-08-18T12:10:25.942Z,955.7
2022-08-18T12:11:26.340Z,955.69
2022-08-18T12:12:21.214Z,955.71
2022-08-18T12:14:30.221Z,955.74
2022-08-18T12:15:23.786Z,955.71
2022-08-18T12:16:21.155Z,955.68
2022-08-18T12:17:20.948Z,955.67
2022-08-18T12:18:26.512Z,955.65
2022-08-18T12:20:20.975Z,955.64
2022-08-18T12:21:21.057Z,955.62
2022-08-18T12:22:20.953Z,955.61
2022-08-18T12:23:21.241Z,955.58
2022-08-18T12:24:21.070Z,955.57
2022-08-18T12:25:24.644Z,955.58
2022-08-18T12:26:27.499Z,955.57
2022-08-18T12:29:21.189Z,955.54
2022-08-18T12:30:20.992Z,955.5
2022-08-18T12:31:21.052Z,955.49
2022-08-18T12:32:41.658Z,955.47
2022-08-18T12:33:25.361Z,955.48
2022-08-18T12:35:21.856Z,955.45
2022-08-18T12:36:21.216Z,955.46
2022-08-18T12:37:57.430Z,955.44
2022-08-18T12:38:21.224Z,955.41
2022-08-18T12:39:20.997Z,955.38
2022-08-18T12:40:21.027Z,955.41
2022-08-18T12:41:23.659Z,955.44
2022-08-18T12:43:21.081Z,955.41
2022-08-18T12:44:21.111Z,955.45
2022-08-18T12:46:21.128Z,955.47
2022-08-18T12:47:21.214Z,955.49
2022-08-18T12:48:22.184Z,955.48
2022-08-18T12:49:21.142Z,955.53
2022-08-18T12:50:21.123Z,955.51
2022-08-18T12:51:24.841Z,955.47
2022-08-18T12:52:21.158Z,955.45
2022-08-18T12:55:21.507Z,955.41
2022-08-18T12:56:21.148Z,955.37
2022-08-18T12:57:27.708Z,955.34
2022-08-18T12:58:21.177Z,955.33
2022-08-18T13:00:27.717Z,955.32
2022-08-18T13:02:21.221Z,955.32
2022-08-18T13:03:21.108Z,955.31
2022-08-18T13:04:21.069Z,955.32
2022-08-18T13:05:26.242Z,955.3
2022-08-18T13:06:21.173Z,955.31
2022-08-18T13:08:27.505Z,955.27
2022-08-18T13:09:34.392Z,955.28
2022-08-18T13:11:21.531Z,955.3
2022-08-18T13:12:21.205Z,955.31
2022-08-18T13:13:21.087Z,955.33
2022-08-18T13:14:21.273Z,955.3
2022-08-18T13:15:21.123Z,955.33
2022-08-18T13:16:30.976Z,955.34
2022-08-18T13:17:29.100Z,955.33
2022-08-18T13:19:21.104Z,955.34
2022-08-18T13:21:21.150Z,955.32
2022-08-18T13:22:21.203Z,955.35
2022-08-18T13:23:24.637Z,955.36
2022-08-18T13:24:22.198Z,955.4
2022-08-18T13:25:28.970Z,955.42
2022-08-18T13:26:21.248Z,955.39
2022-08-18T13:27:23.146Z,955.46
2022-08-18T13:28:21.357Z,955.47
2022-08-18T13:29:21.179Z,955.45
2022-08-18T13:31:21.136Z,955.43
2022-08-18T13:32:21.125Z,955.41
2022-08-18T13:33:35.503Z,955.39
2022-08-18T13:36:22.466Z,955.45
2022-08-18T13:37:21.289Z,955.47
2022-08-18T13:38:21.892Z,955.48
2022-08-18T13:39:21.382Z,955.51
2022-08-18T13:41:21.477Z,955.47
2022-08-18T13:42:21.980Z,955.52
2022-08-18T13:43:21.852Z,955.49
2022-08-18T13:44:21.254Z,955.46
2022-08-18T13:45:23.156Z,955.48
2022-08-18T13:47:21.217Z,955.45
2022-08-18T13:48:21.179Z,955.48
2022-08-18T13:49:23.477Z,955.46
2022-08-18T13:50:21.322Z,955.44
2022-08-18T13:51:21.186Z,955.41
2022-08-18T13:53:21.338Z,955.44
2022-08-18T13:54:30.724Z,955.43
2022-08-18T13:55:21.259Z,955.4
2022-08-18T13:57:21.293Z,955.42
2022-08-18T13:58:21.449Z,955.4
2022-08-18T13:59:21.205Z,955.43
2022-08-18T14:00:23.141Z,955.42
2022-08-18T14:03:30.921Z,955.43
2022-08-18T14:04:22.630Z,955.46
2022-08-18T14:06:22.088Z,955.39
2022-08-18T14:07:24.713Z,955.48
2022-08-18T14:08:21.466Z,955.4
2022-08-18T14:09:28.194Z,955.52
2022-08-18T14:10:21.393Z,955.4
2022-08-18T14:11:21.344Z,955.48
2022-08-18T14:12:23.117Z,955.47
2022-08-18T14:13:24.501Z,955.48
2022-08-18T14:14:21.453Z,955.45
2022-08-18T14:15:21.257Z,955.48
2022-08-18T14:16:21.569Z,955.39
2022-08-18T14:17:22.397Z,955.42
2022-08-18T14:18:21.328Z,955.46
2022-08-18T14:19:22.661Z,955.51
2022-08-18T14:21:21.869Z,955.56
2022-08-18T14:22:21.277Z,955.51
2022-08-18T14:23:23.973Z,955.53
2022-08-18T14:24:21.582Z,955.56
2022-08-18T14:25:22.279Z,955.57
2022-08-18T14:26:21.528Z,955.58
2022-08-18T14:27:21.325Z,955.64